Time;durP1;ratioP1;P1;durP2;ratioP2;P2;SDS_P1;SDS_P2;PMS_P1;PMS_P2;Temp;Humidity;BMP_temperature;BMP_pressure;BME280_temperature;BME280_humidity;BME280_pressure;Samples;Min_cycle;Max_cycle;Signal;HPM_P1;HPM_P2
2024/03/22 00:02:18;;;;;;;0.95;0.95;;;;;;;3.73;100.00;100078.53;5085753;28;20471;-74
2024/03/22 00:04:44;;;;;;;2.63;2.00;;;;;;;3.77;100.00;100090.56;5118396;28;20023;-72
2024/03/22 00:07:09;;;;;;;1.75;1.15;;;;;;;3.71;100.00;100075.94;5084378;28;20020;-72
2024/03/22 00:09:34;;;;;;;0.70;0.68;;;;;;;3.75;100.00;100076.84;5085759;28;20069;-72
2024/03/22 00:12:00;;;;;;;0.60;0.60;;;;;;;3.78;100.00;100068.31;5085782;28;20040;-72
2024/03/22 00:14:25;;;;;;;3.35;2.15;;;;;;;3.85;100.00;100064.97;5117936;28;20029;-73
2024/03/22 00:16:50;;;;;;;6.50;1.60;;;;;;;3.78;100.00;100063.19;5085692;28;20024;-72
2024/03/22 00:19:16;;;;;;;4.90;3.05;;;;;;;3.81;100.00;100060.66;5085291;28;20049;-73
2024/03/22 00:21:42;;;;;;;3.42;3.15;;;;;;;3.88;100.00;100065.03;5085316;28;20032;-72
2024/03/22 00:24:07;;;;;;;2.83;2.33;;;;;;;3.89;100.00;100069.34;5085571;28;20048;-72
2024/03/22 00:26:32;;;;;;;1.50;1.40;;;;;;;3.89;100.00;100061.63;5085630;28;20456;-75
2024/03/22 00:28:58;;;;;;;1.75;1.30;;;;;;;3.88;100.00;100057.34;5085404;28;20020;-74
2024/03/22 00:31:24;;;;;;;1.13;0.93;;;;;;;3.87;100.00;100058.16;5084247;28;20044;-75
2024/03/22 00:33:49;;;;;;;2.47;1.42;;;;;;;3.92;100.00;100048.81;5085514;28;20035;-74
2024/03/22 00:36:14;;;;;;;0.90;0.90;;;;;;;3.95;100.00;100053.13;5084155;28;20036;-73
2024/03/22 00:38:40;;;;;;;1.35;1.05;;;;;;;3.93;100.00;100042.84;5084042;28;20028;-74
2024/03/22 00:41:06;;;;;;;0.60;0.60;;;;;;;3.90;100.00;100026.53;5085252;28;20025;-74
2024/03/22 00:43:31;;;;;;;0.93;0.88;;;;;;;3.91;100.00;100008.59;5083748;28;20030;-73
2024/03/22 00:45:58;;;;;;;0.60;0.60;;;;;;;3.86;100.00;100004.22;5083936;28;20115;-73
2024/03/22 00:48:23;;;;;;;1.88;1.15;;;;;;;3.96;100.00;100009.47;5083959;28;20154;-74
2024/03/22 00:50:48;;;;;;;0.40;0.40;;;;;;;3.97;100.00;100011.22;5085265;28;20036;-73
2024/03/22 00:53:14;;;;;;;1.65;1.13;;;;;;;4.00;100.00;100001.81;5085198;28;20032;-73
2024/03/22 00:55:39;;;;;;;0.50;0.50;;;;;;;3.94;100.00;99990.63;5085114;28;20086;-74
2024/03/22 00:58:05;;;;;;;1.98;1.83;;;;;;;4.03;100.00;99994.13;5085021;28;20054;-74
2024/03/22 01:00:30;;;;;;;1.08;0.98;;;;;;;3.99;100.00;99975.28;5083792;28;20440;-74
2024/03/22 01:02:55;;;;;;;9.95;1.52;;;;;;;4.07;100.00;99976.22;5085169;28;20111;-75
2024/03/22 01:05:21;;;;;;;0.98;0.82;;;;;;;4.06;100.00;99971.94;5083941;28;20020;-72
2024/03/22 01:07:46;;;;;;;0.73;0.73;;;;;;;4.07;100.00;99970.22;5083683;28;20084;-74
2024/03/22 01:10:12;;;;;;;3.13;1.27;;;;;;;4.16;100.00;99962.63;5085121;28;20020;-75
2024/03/22 01:12:38;;;;;;;3.78;2.15;;;;;;;4.17;100.00;99963.50;5085096;28;20056;-74
2024/03/22 01:15:05;;;;;;;2.53;1.88;;;;;;;4.13;100.00;99944.59;5083712;28;20070;-75
2024/03/22 01:17:31;;;;;;;0.50;0.50;;;;;;;4.21;100.00;99953.25;5085098;28;20030;-74
2024/03/22 01:19:56;;;;;;;2.17;2.08;;;;;;;4.18;100.00;99945.53;5085013;28;20092;-74
2024/03/22 01:22:21;;;;;;;5.35;1.60;;;;;;;4.22;100.00;99943.81;5083900;28;20024;-74
2024/03/22 01:24:47;;;;;;;1.50;1.25;;;;;;;4.24;100.00;99937.00;5084381;28;20033;-76
2024/03/22 01:27:12;;;;;;;1.02;1.00;;;;;;;4.19;100.00;99923.22;5086312;28;20020;-74
2024/03/22 01:29:38;;;;;;;2.03;1.92;;;;;;;4.24;100.00;99936.13;5086968;28;20042;-74
2024/03/22 01:32:04;;;;;;;1.50;1.25;;;;;;;4.28;100.00;99932.75;5088739;28;20020;-73
2024/03/22 01:34:29;;;;;;;1.48;1.38;;;;;;;4.16;100.00;99913.81;5087103;28;20028;-73
2024/03/22 01:36:54;;;;;;;1.00;1.00;;;;;;;4.22;100.00;99924.13;5088441;28;20021;-73
2024/03/22 01:39:21;;;;;;;2.38;1.90;;;;;;;4.25;100.00;99912.19;5087115;28;20092;-73
2024/03/22 01:41:51;;;;;;;12.23;1.73;;;;;;;4.28;100.00;99905.34;5088333;28;20036;-74
2024/03/22 01:44:17;;;;;;;2.17;1.80;;;;;;;4.29;100.00;99890.78;5088160;28;20115;-73
2024/03/22 01:46:44;;;;;;;0.60;0.50;;;;;;;4.28;100.00;99892.47;5088350;28;20021;-74
2024/03/22 01:49:11;;;;;;;1.00;1.00;;;;;;;4.34;100.00;99901.97;5088374;28;20016;-73
2024/03/22 01:51:37;;;;;;;1.17;0.77;;;;;;;4.33;100.00;99880.53;5088283;28;20024;-74
2024/03/22 01:54:04;;;;;;;2.15;1.88;;;;;;;4.33;100.00;99875.41;5087015;28;20024;-74
2024/03/22 01:56:30;;;;;;;1.50;1.40;;;;;;;4.29;100.00;99871.09;5088202;28;20031;-74
2024/03/22 01:58:56;;;;;;;2.10;0.90;;;;;;;4.36;100.00;99871.16;5087901;28;20048;-73
2024/03/22 02:01:22;;;;;;;0.60;0.60;;;;;;;4.36;100.00;99864.28;5086919;28;20021;-75
2024/03/22 02:03:47;;;;;;;1.38;1.27;;;;;;;4.35;100.00;99849.72;5086778;28;20456;-74
2024/03/22 02:06:13;;;;;;;1.70;0.98;;;;;;;4.41;100.00;99860.03;5087937;28;20021;-72
2024/03/22 02:08:41;;;;;;;1.25;1.15;;;;;;;4.43;100.00;99854.91;5087803;28;20043;-73
2024/03/22 02:11:07;;;;;;;2.58;2.25;;;;;;;4.43;100.00;99850.66;5087891;28;20027;-74
2024/03/22 02:13:32;;;;;;;3.42;1.98;;;;;;;4.45;100.00;99853.22;5087710;28;20020;-71
2024/03/22 02:15:58;;;;;;;1.52;1.33;;;;;;;4.47;100.00;99842.09;5087789;28;20029;-73
2024/03/22 02:18:23;;;;;;;2.20;1.63;;;;;;;4.43;100.00;99819.81;5085991;28;20044;-73
2024/03/22 02:20:48;;;;;;;0.60;0.60;;;;;;;4.50;100.00;99825.84;5087805;28;20032;-72
2024/03/22 02:23:14;;;;;;;2.55;0.93;;;;;;;4.51;100.00;99806.13;5087703;28;20016;-71
2024/03/22 02:25:39;;;;;;;1.30;1.20;;;;;;;4.48;100.00;99817.25;5087664;28;20031;-75
2024/03/22 02:28:05;;;;;;;1.38;1.27;;;;;;;4.53;100.00;99804.44;5087412;28;20028;-74
2024/03/22 02:30:30;;;;;;;0.82;0.82;;;;;;;4.50;100.00;99807.00;5087378;28;20052;-72
2024/03/22 02:32:55;;;;;;;1.25;1.17;;;;;;;4.56;100.00;99812.16;5087573;28;20051;-72
2024/03/22 02:35:21;;;;;;;5.55;3.13;;;;;;;4.54;100.00;99804.44;5086162;28;20016;-72
2024/03/22 02:37:46;;;;;;;3.30;1.05;;;;;;;4.57;100.00;99803.59;5087279;28;20024;-72
2024/03/22 02:40:12;;;;;;;2.88;1.05;;;;;;;4.58;100.00;99782.19;5087308;28;20044;-72
2024/03/22 02:42:37;;;;;;;13.45;2.58;;;;;;;4.57;100.00;99788.16;5087172;28;20090;-72
2024/03/22 02:45:03;;;;;;;0.88;0.60;;;;;;;4.58;100.00;99802.78;5085819;28;20030;-72
2024/03/22 02:47:28;;;;;;;1.98;1.88;;;;;;;4.60;100.00;99780.47;5085676;28;20096;-72
2024/03/22 02:49:54;;;;;;;0.95;0.68;;;;;;;4.59;100.00;99779.63;5085648;28;20059;-72
2024/03/22 02:52:19;;;;;;;1.05;1.02;;;;;;;4.56;100.00;99766.75;5085630;28;20032;-70
2024/03/22 02:54:44;;;;;;;0.70;0.70;;;;;;;4.56;100.00;99771.03;5086997;28;20035;-71
2024/03/22 02:57:09;;;;;;;2.25;1.85;;;;;;;4.59;100.00;99764.22;5087034;28;20051;-72
2024/03/22 02:59:35;;;;;;;0.52;0.52;;;;;;;4.58;100.00;99753.91;5086826;28;20376;-72
2024/03/22 03:02:00;;;;;;;4.47;4.05;;;;;;;4.61;100.00;99750.50;5086886;28;20052;-71
2024/03/22 03:04:25;;;;;;;1.10;1.00;;;;;;;4.64;100.00;99746.25;5085433;28;20427;-71
2024/03/22 03:06:51;;;;;;;1.50;1.42;;;;;;;4.62;100.00;99729.09;5085406;28;20020;-72
2024/03/22 03:09:16;;;;;;;1.52;1.42;;;;;;;4.65;100.00;99737.66;5086774;28;20020;-72
2024/03/22 03:11:42;;;;;;;1.42;0.70;;;;;;;4.67;100.00;99741.09;5086663;28;20027;-70
2024/03/22 03:14:07;;;;;;;3.05;1.30;;;;;;;4.68;100.00;99744.53;5085148;28;20060;-72
2024/03/22 03:16:32;;;;;;;1.67;1.25;;;;;;;4.67;100.00;99730.81;5086448;28;20047;-72
2024/03/22 03:18:58;;;;;;;1.02;0.98;;;;;;;4.71;100.00;99724.81;5084748;28;20066;-71
2024/03/22 03:21:23;;;;;;;5.05;2.58;;;;;;;4.72;100.00;99720.56;5086421;28;20020;-72
2024/03/22 03:23:49;;;;;;;13.05;1.98;;;;;;;4.69;100.00;99711.13;5086416;28;20150;-71
2024/03/22 03:26:14;;;;;;;30.65;3.63;;;;;;;4.73;100.00;99701.69;5086285;28;20044;-72
2024/03/22 03:28:39;;;;;;;1.95;1.60;;;;;;;4.74;100.00;99700.00;5084869;28;20089;-72
2024/03/22 03:31:05;;;;;;;3.30;3.00;;;;;;;4.74;100.00;99707.69;5086212;28;20103;-73
2024/03/22 03:33:30;;;;;;;1.10;0.90;;;;;;;4.75;100.00;99707.72;5086355;28;20465;-73
2024/03/22 03:35:56;;;;;;;11.23;1.52;;;;;;;4.77;100.00;99702.56;5084830;28;20122;-75
2024/03/22 03:38:22;;;;;;;5.53;2.92;;;;;;;4.75;100.00;99707.72;5086096;28;20040;-71
2024/03/22 03:40:47;;;;;;;1.73;1.63;;;;;;;4.78;100.00;99705.16;5086477;28;20024;-71
2024/03/22 03:43:13;;;;;;;2.47;0.95;;;;;;;4.82;100.00;99718.88;5084521;28;20024;-73
2024/03/22 03:45:38;;;;;;;1.33;1.13;;;;;;;4.82;100.00;99714.59;5086084;28;20024;-71
2024/03/22 03:48:04;;;;;;;1.30;1.20;;;;;;;4.80;100.00;99700.00;5084814;28;20258;-73
2024/03/22 03:50:29;;;;;;;3.47;1.92;;;;;;;4.82;100.00;99698.31;5085460;28;20024;-72
2024/03/22 03:52:55;;;;;;;2.05;1.67;;;;;;;4.78;100.00;99686.28;5085993;28;20024;-72
2024/03/22 03:55:21;;;;;;;8.35;2.50;;;;;;;4.81;100.00;99684.59;5085875;28;20024;-71
2024/03/22 03:57:47;;;;;;;2.15;0.98;;;;;;;4.81;100.00;99681.16;5084195;28;20027;-71
2024/03/22 04:00:12;;;;;;;0.55;0.55;;;;;;;4.86;100.00;99700.03;5084546;28;20052;-71
2024/03/22 04:02:38;;;;;;;1.48;1.15;;;;;;;4.82;100.00;99672.59;5085742;28;20465;-71
2024/03/22 04:05:03;;;;;;;1.35;1.13;;;;;;;4.86;100.00;99676.88;5085699;28;20025;-72
2024/03/22 04:07:29;;;;;;;27.77;1.98;;;;;;;4.83;100.00;99664.88;5085759;28;20031;-71
2024/03/22 04:09:54;;;;;;;1.40;1.30;;;;;;;4.83;100.00;99671.72;5084396;28;20051;-71
2024/03/22 04:12:20;;;;;;;1.55;1.45;;;;;;;4.87;100.00;99658.03;5084414;28;20526;-72
2024/03/22 04:14:45;;;;;;;0.60;0.60;;;;;;;4.86;100.00;99647.75;5085589;28;20017;-71
2024/03/22 04:17:10;;;;;;;4.85;1.92;;;;;;;4.86;100.00;99630.59;5085247;28;20077;-72
2024/03/22 04:19:35;;;;;;;2.05;1.05;;;;;;;4.83;100.00;99635.72;5085382;28;20476;-72
2024/03/22 04:22:01;;;;;;;11.43;2.75;;;;;;;4.83;100.00;99654.59;5085615;28;20031;-71
2024/03/22 04:24:26;;;;;;;1.00;0.93;;;;;;;4.87;100.00;99660.63;5085506;28;20025;-72
2024/03/22 04:26:51;;;;;;;0.40;0.40;;;;;;;4.86;100.00;99647.75;5085527;28;20031;-72
2024/03/22 04:29:17;;;;;;;2.53;1.80;;;;;;;4.85;100.00;99636.59;5085303;28;20070;-72
2024/03/22 04:31:42;;;;;;;3.00;2.33;;;;;;;4.87;100.00;99624.59;5085393;28;20047;-72
2024/03/22 04:34:08;;;;;;;2.20;1.25;;;;;;;4.90;100.00;99616.03;5084347;28;20082;-72
2024/03/22 04:36:33;;;;;;;2.15;1.67;;;;;;;4.93;100.00;99614.34;5085422;28;20038;-72
2024/03/22 04:38:59;;;;;;;0.82;0.82;;;;;;;4.94;100.00;99622.88;5084092;28;20043;-73
2024/03/22 04:41:24;;;;;;;1.20;1.08;;;;;;;4.96;100.00;99610.91;5084050;28;20030;-71
2024/03/22 04:43:49;;;;;;;3.50;1.88;;;;;;;4.95;100.00;99597.16;5085222;28;20115;-71
2024/03/22 04:46:15;;;;;;;51.25;5.85;;;;;;;4.96;100.00;99606.63;5083947;28;20028;-71
2024/03/22 04:48:40;;;;;;;9.07;2.38;;;;;;;4.96;100.00;99614.34;5085409;28;20013;-72
2024/03/22 04:51:05;;;;;;;6.90;2.40;;;;;;;4.98;100.00;99616.91;5085269;28;20036;-72
2024/03/22 04:53:31;;;;;;;16.08;2.72;;;;;;;5.02;100.00;99622.91;5083740;28;20028;-72
2024/03/22 04:55:56;;;;;;;7.68;2.67;;;;;;;5.02;100.00;99605.75;5083995;28;20505;-73
2024/03/22 04:58:21;;;;;;;1.23;0.98;;;;;;;5.05;100.00;99599.75;5084798;28;20020;-72
2024/03/22 05:00:56;;;;;;;0.55;0.55;;;;;;;5.04;100.00;99595.47;5084148;28;20024;-73
2024/03/22 05:03:22;;;;;;;1.40;1.30;;;;;;;5.05;100.00;99581.75;5088880;28;20029;-72
2024/03/22 05:05:47;;;;;;;12.05;1.38;;;;;;;5.01;100.00;99573.19;5088964;28;20111;-72
2024/03/22 05:08:12;;;;;;;22.63;2.97;;;;;;;5.10;100.00;99574.06;5088966;28;20017;-72
2024/03/22 05:10:38;;;;;;;9.50;1.23;;;;;;;5.11;100.00;99576.63;5088940;28;20092;-71
2024/03/22 05:13:03;;;;;;;1.58;1.48;;;;;;;5.13;100.00;99580.03;5088794;28;20033;-72
2024/03/22 05:15:29;;;;;;;3.75;2.60;;;;;;;5.14;100.00;99579.19;5088972;28;20058;-72
2024/03/22 05:17:57;;;;;;;1.90;1.58;;;;;;;5.14;100.00;99570.59;5088518;28;20020;-72
2024/03/22 05:20:23;;;;;;;20.52;2.50;;;;;;;5.17;100.00;99576.63;5087276;28;20021;-73
2024/03/22 05:22:48;;;;;;;2.88;1.40;;;;;;;5.19;100.00;99564.59;5088684;28;20020;-72
2024/03/22 05:25:15;;;;;;;20.45;3.55;;;;;;;5.21;100.00;99573.19;5088635;28;20043;-72
2024/03/22 05:27:41;;;;;;;5.32;2.22;;;;;;;5.23;100.00;99554.28;5088483;28;20055;-72
2024/03/22 05:30:11;;;;;;;1.75;1.65;;;;;;;5.21;100.00;99542.31;5087163;28;20017;-72
2024/03/22 05:32:37;;;;;;;13.88;2.78;;;;;;;5.14;100.00;99535.44;5088417;28;20025;-72
2024/03/22 05:35:02;;;;;;;4.22;3.60;;;;;;;5.25;100.00;99552.59;5088458;28;20027;-72
2024/03/22 05:37:28;;;;;;;3.80;1.20;;;;;;;5.26;100.00;99523.41;5087170;28;20448;-72
2024/03/22 05:39:54;;;;;;;9.35;2.90;;;;;;;5.27;100.00;99507.13;5088355;28;20025;-72
2024/03/22 05:42:20;;;;;;;6.85;2.00;;;;;;;5.30;100.00;99530.28;5088530;28;20093;-72
2024/03/22 05:44:45;;;;;;;1.45;1.27;;;;;;;5.31;100.00;99526.84;5088227;28;20094;-72
2024/03/22 05:47:11;;;;;;;6.82;3.03;;;;;;;5.30;100.00;99535.44;5088339;28;20031;-72
2024/03/22 05:49:36;;;;;;;62.72;6.00;;;;;;;5.30;100.00;99533.69;5087001;28;20027;-72
2024/03/22 05:52:01;;;;;;;14.50;4.95;;;;;;;5.32;100.00;99538.84;5086864;28;20043;-72
2024/03/22 05:54:27;;;;;;;3.25;2.88;;;;;;;5.31;100.00;99520.00;5088281;28;20118;-72
2024/03/22 05:56:52;;;;;;;21.05;4.80;;;;;;;5.29;100.00;99537.16;5088427;28;20027;-73
2024/03/22 05:59:17;;;;;;;3.45;2.70;;;;;;;5.37;100.00;99537.13;5087754;28;20079;-72
2024/03/22 06:01:43;;;;;;;28.05;3.42;;;;;;;5.39;100.00;99535.44;5088046;28;20055;-72
2024/03/22 06:04:08;;;;;;;12.73;2.83;;;;;;;5.39;100.00;99530.28;5086560;28;20024;-72
2024/03/22 06:06:38;;;;;;;42.08;4.15;;;;;;;5.43;100.00;99528.56;5087907;28;20076;-71
2024/03/22 06:09:03;;;;;;;4.38;2.00;;;;;;;5.41;100.00;99515.69;5088016;28;20028;-71
2024/03/22 06:11:32;;;;;;;10.95;2.42;;;;;;;5.44;100.00;99504.53;5087504;28;20020;-72
2024/03/22 06:13:57;;;;;;;7.10;3.00;;;;;;;5.35;100.00;99486.53;5087508;28;20021;-72
2024/03/22 06:16:22;;;;;;;5.63;3.13;;;;;;;5.43;100.00;99506.22;5087688;28;20035;-72
2024/03/22 06:18:57;;;;;;;6.07;3.58;;;;;;;5.38;100.00;99495.09;5086159;28;20059;-73
2024/03/22 06:21:24;;;;;;;27.23;5.93;;;;;;;5.47;100.00;99489.06;5087767;28;20083;-73
2024/03/22 06:23:50;;;;;;;5.53;4.13;;;;;;;5.45;100.00;99473.63;5087815;28;20043;-73
2024/03/22 06:26:16;;;;;;;3.22;2.15;;;;;;;5.44;100.00;99478.78;5087537;28;20025;-73
2024/03/22 06:28:41;;;;;;;6.85;5.38;;;;;;;5.43;100.00;99485.63;5085976;28;20020;-73
2024/03/22 06:31:07;;;;;;;13.82;3.63;;;;;;;5.48;100.00;99490.78;5087443;28;20020;-72
2024/03/22 06:33:33;;;;;;;7.18;3.28;;;;;;;5.46;100.00;99493.34;5087270;28;20107;-72
2024/03/22 06:35:58;;;;;;;2.20;2.00;;;;;;;5.49;100.00;99505.38;5087388;28;20020;-73
2024/03/22 06:38:23;;;;;;;14.75;4.20;;;;;;;5.52;100.00;99495.06;5085643;28;20020;-73
2024/03/22 06:40:49;;;;;;;11.20;4.40;;;;;;;5.53;100.00;99478.75;5085062;28;20396;-73
2024/03/22 06:43:14;;;;;;;5.60;3.55;;;;;;;5.56;100.00;99465.88;5084467;28;20054;-73
2024/03/22 06:45:39;;;;;;;9.70;4.00;;;;;;;5.52;100.00;99471.91;5086823;28;20418;-72
2024/03/22 06:48:05;;;;;;;5.75;3.30;;;;;;;5.60;100.00;99471.00;5086504;28;20067;-73
2024/03/22 06:50:30;;;;;;;8.20;2.90;;;;;;;5.61;100.00;99468.44;5086109;28;20039;-72
2024/03/22 06:52:55;;;;;;;24.45;3.17;;;;;;;5.54;100.00;99457.28;5086477;28;20016;-72
2024/03/22 06:55:22;;;;;;;1.15;1.05;;;;;;;5.58;100.00;99458.13;5085866;28;20025;-72
2024/03/22 06:57:48;;;;;;;23.95;4.38;;;;;;;5.56;100.00;99444.41;5085688;28;20051;-71
2024/03/22 07:00:14;;;;;;;2.05;1.52;;;;;;;5.54;100.00;99452.13;5085888;28;20020;-72
2024/03/22 07:02:40;;;;;;;9.02;4.10;;;;;;;5.60;100.00;99448.69;5086041;28;20035;-72
2024/03/22 07:05:07;;;;;;;3.85;2.40;;;;;;;5.57;100.00;99446.97;5086338;28;20580;-72
2024/03/22 07:07:32;;;;;;;4.05;1.77;;;;;;;5.56;100.00;99442.69;5086449;28;20080;-71
2024/03/22 07:09:58;;;;;;;3.70;3.40;;;;;;;5.57;100.00;99439.25;5084886;28;20024;-72
2024/03/22 07:12:23;;;;;;;9.00;3.90;;;;;;;5.62;100.00;99443.53;5085952;28;20020;-73
2024/03/22 07:14:49;;;;;;;4.85;3.65;;;;;;;5.64;100.00;99447.81;5085962;28;20401;-72
2024/03/22 07:17:15;;;;;;;3.85;3.40;;;;;;;5.67;100.00;99454.69;5084698;28;20357;-71
2024/03/22 07:19:40;;;;;;;2.20;1.23;;;;;;;5.65;100.00;99461.56;5085564;28;20053;-73
2024/03/22 07:22:06;;;;;;;2.95;2.22;;;;;;;5.61;100.00;99441.84;5086256;28;20427;-71
2024/03/22 07:24:32;;;;;;;24.50;3.05;;;;;;;5.62;100.00;99440.97;5085562;28;20437;-72
2024/03/22 07:26:57;;;;;;;1.60;1.50;;;;;;;5.58;100.00;99434.97;5086152;28;20107;-73
2024/03/22 07:29:23;;;;;;;4.10;2.97;;;;;;;5.62;100.00;99438.41;5086078;28;20032;-73
2024/03/22 07:31:48;;;;;;;4.93;4.43;;;;;;;5.64;100.00;99432.38;5086145;28;20040;-72
2024/03/22 07:34:13;;;;;;;34.05;4.32;;;;;;;5.63;100.00;99430.66;5086194;28;20024;-72
2024/03/22 07:36:39;;;;;;;19.35;3.35;;;;;;;5.68;100.00;99426.38;5086188;28;20032;-73
2024/03/22 07:39:06;;;;;;;14.60;3.72;;;;;;;5.69;100.00;99422.03;5085826;28;20060;-72
2024/03/22 07:41:34;;;;;;;11.10;3.53;;;;;;;5.72;100.00;99439.22;5084740;28;20031;-72
2024/03/22 07:44:00;;;;;;;36.75;4.15;;;;;;;5.70;100.00;99422.03;5084385;28;20125;-73
2024/03/22 07:46:26;;;;;;;13.27;4.65;;;;;;;5.75;100.00;99434.06;5085891;28;20472;-71
2024/03/22 07:48:52;;;;;;;3.40;3.05;;;;;;;5.73;100.00;99418.63;5086004;28;20024;-72
2024/03/22 07:51:17;;;;;;;4.75;3.35;;;;;;;5.74;100.00;99425.47;5085898;28;20032;-72
2024/03/22 07:53:43;;;;;;;7.35;3.58;;;;;;;5.70;100.00;99419.47;5085720;28;20042;-72
2024/03/22 07:56:08;;;;;;;17.75;5.45;;;;;;;5.74;100.00;99432.31;5084601;28;20020;-72
2024/03/22 07:58:33;;;;;;;10.35;3.67;;;;;;;5.77;100.00;99428.03;5085548;28;20028;-72
2024/03/22 08:00:59;;;;;;;7.85;3.83;;;;;;;5.78;100.00;99436.63;5084475;28;20032;-72
2024/03/22 08:03:24;;;;;;;15.70;2.90;;;;;;;5.78;100.00;99418.59;5084332;28;20432;-72
2024/03/22 08:05:49;;;;;;;3.85;2.95;;;;;;;5.79;100.00;99426.31;5085650;28;20036;-71
2024/03/22 08:08:15;;;;;;;14.18;3.22;;;;;;;5.83;100.00;99416.84;5085677;28;20039;-73
2024/03/22 08:10:40;;;;;;;2.67;2.08;;;;;;;5.82;100.00;99412.53;5086104;28;20174;-73
2024/03/22 08:13:05;;;;;;;12.13;3.67;;;;;;;5.83;100.00;99409.13;5086161;28;20025;-72
2024/03/22 08:15:31;;;;;;;10.82;2.85;;;;;;;5.85;100.00;99406.53;5084756;28;20024;-74
2024/03/22 08:17:57;;;;;;;7.97;3.92;;;;;;;5.83;100.00;99409.97;5085648;28;20063;-73
2024/03/22 08:20:23;;;;;;;6.53;3.75;;;;;;;5.85;100.00;99412.53;5085660;28;20016;-74
2024/03/22 08:22:49;;;;;;;6.95;3.25;;;;;;;5.90;100.00;99413.38;5085815;28;20028;-74
2024/03/22 08:25:17;;;;;;;23.33;2.40;;;;;;;5.84;100.00;99395.38;5085719;28;20025;-73
2024/03/22 08:27:45;;;;;;;14.90;3.38;;;;;;;5.93;100.00;99407.34;5085579;28;20028;-72
2024/03/22 08:30:11;;;;;;;4.80;3.30;;;;;;;5.94;100.00;99415.06;5085510;28;20012;-73
2024/03/22 08:32:37;;;;;;;11.93;3.60;;;;;;;5.96;100.00;99422.78;5085464;28;20024;-73
2024/03/22 08:35:04;;;;;;;9.15;3.17;;;;;;;6.00;100.00;99423.63;5086306;28;20078;-73
2024/03/22 08:37:29;;;;;;;5.20;3.08;;;;;;;5.90;100.00;99405.66;5089619;28;20024;-73
2024/03/22 08:39:55;;;;;;;1.73;1.55;;;;;;;5.97;100.00;99409.06;5089556;28;20031;-74
2024/03/22 08:42:20;;;;;;;1.80;1.67;;;;;;;5.95;100.00;99406.47;5089394;28;20029;-75
2024/03/22 08:44:45;;;;;;;6.68;3.17;;;;;;;5.94;100.00;99412.47;5089398;28;20028;-73
2024/03/22 08:47:11;;;;;;;5.10;3.10;;;;;;;5.95;100.00;99410.78;5088267;28;20028;-73
2024/03/22 08:49:37;;;;;;;8.77;4.35;;;;;;;6.01;100.00;99418.47;5089335;28;20023;-73
2024/03/22 08:52:02;;;;;;;5.72;3.17;;;;;;;5.99;100.00;99403.88;5089259;28;20016;-73
2024/03/22 08:54:28;;;;;;;4.95;3.22;;;;;;;6.07;100.00;99409.88;5089338;28;20024;-74
2024/03/22 08:56:53;;;;;;;5.95;3.28;;;;;;;6.07;100.00;99409.88;5089340;28;20032;-73
2024/03/22 08:59:19;;;;;;;7.88;3.22;;;;;;;6.13;100.00;99414.13;5089119;28;20024;-73
2024/03/22 09:01:44;;;;;;;9.77;3.55;;;;;;;6.18;100.00;99420.13;5089266;28;20028;-74
2024/03/22 09:04:09;;;;;;;12.45;3.55;;;;;;;6.18;100.00;99418.38;5089252;28;20028;-72
2024/03/22 09:06:35;;;;;;;14.00;3.13;;;;;;;6.20;100.00;99413.22;5089184;28;20017;-73
2024/03/22 09:09:00;;;;;;;21.95;2.97;;;;;;;6.24;100.00;99419.22;5089110;28;20024;-73
2024/03/22 09:11:26;;;;;;;20.05;5.68;;;;;;;6.28;100.00;99413.16;5089113;28;20063;-73
2024/03/22 09:13:52;;;;;;;5.15;2.47;;;;;;;6.30;100.00;99408.88;5088838;28;20025;-73
2024/03/22 09:16:18;;;;;;;10.23;2.95;;;;;;;6.44;100.00;99407.03;5088994;28;20047;-73
2024/03/22 09:18:43;;;;;;;15.30;3.75;;;;;;;6.52;100.00;99412.13;5088716;28;20040;-74
2024/03/22 09:21:10;;;;;;;5.43;3.17;;;;;;;6.52;100.00;99400.97;5088873;28;20016;-73
2024/03/22 09:23:35;;;;;;;15.45;4.60;;;;;;;6.64;100.00;99418.06;5088635;28;20036;-74
2024/03/22 09:26:01;;;;;;;4.45;3.20;;;;;;;6.64;100.00;99416.38;5088760;28;20025;-74
2024/03/22 09:28:26;;;;;;;6.45;5.68;;;;;;;6.67;100.00;99411.19;5087312;28;20035;-74
2024/03/22 09:30:51;;;;;;;15.27;4.65;;;;;;;6.67;100.00;99393.13;5088795;28;20101;-73
2024/03/22 09:33:17;;;;;;;3.92;2.53;;;;;;;6.71;100.00;99414.56;5087441;28;20084;-73
2024/03/22 09:35:43;;;;;;;11.25;3.30;;;;;;;6.71;100.00;99411.16;5087210;28;20031;-73
2024/03/22 09:38:08;;;;;;;28.38;4.35;;;;;;;6.71;100.00;99416.31;5087281;28;20025;-74
2024/03/22 09:40:37;;;;;;;15.63;3.45;;;;;;;6.70;100.00;99428.34;5088400;28;20036;-72
2024/03/22 09:43:04;;;;;;;13.20;4.68;;;;;;;6.69;100.00;99430.06;5087097;28;20126;-74
2024/03/22 09:45:31;;;;;;;35.85;2.47;;;;;;;6.72;100.00;99425.75;5088623;28;20027;-74
2024/03/22 09:47:57;;;;;;;25.75;4.70;;;;;;;6.70;100.00;99418.03;5087644;28;20055;-73
2024/03/22 09:50:23;;;;;;;3.75;2.75;;;;;;;6.69;100.00;99417.16;5088312;28;20072;-72
2024/03/22 09:52:51;;;;;;;13.38;5.47;;;;;;;6.68;100.00;99425.78;5086858;28;20051;-73
2024/03/22 09:55:16;;;;;;;7.82;3.30;;;;;;;6.71;100.00;99426.63;5088278;28;20020;-73
2024/03/22 09:57:44;;;;;;;8.75;4.38;;;;;;;6.73;100.00;99414.53;5088228;28;20020;-72
2024/03/22 10:00:13;;;;;;;19.70;3.78;;;;;;;6.76;100.00;99409.34;5088055;28;20031;-72
2024/03/22 10:02:40;;;;;;;10.52;4.82;;;;;;;6.78;100.00;99402.47;5088017;28;20395;-73
2024/03/22 10:05:06;;;;;;;10.80;5.07;;;;;;;6.78;100.00;99400.75;5088105;28;20028;-73
2024/03/22 10:07:32;;;;;;;20.60;5.90;;;;;;;6.81;100.00;99405.03;5088029;28;20031;-73
2024/03/22 10:09:58;;;;;;;12.20;4.05;;;;;;;6.87;100.00;99402.38;5086674;28;20016;-74
2024/03/22 10:12:25;;;;;;;13.93;4.53;;;;;;;6.92;100.00;99410.94;5088095;28;20028;-75
2024/03/22 10:14:52;;;;;;;17.15;4.03;;;;;;;7.01;100.00;99409.16;5087692;28;20503;-73
2024/03/22 10:17:18;;;;;;;9.75;3.97;;;;;;;7.20;100.00;99404.66;5087853;28;20040;-73
2024/03/22 10:19:43;;;;;;;8.98;4.90;;;;;;;7.36;100.00;99392.44;5087642;28;20045;-73
2024/03/22 10:22:08;;;;;;;17.30;5.00;;;;;;;7.48;100.00;99399.16;5086385;28;20028;-72
2024/03/22 10:24:34;;;;;;;16.58;3.47;;;;;;;7.56;100.00;99397.34;5087754;28;20464;-72
2024/03/22 10:26:59;;;;;;;9.00;3.63;;;;;;;7.68;100.00;99409.25;5087944;28;20038;-72
2024/03/22 10:29:25;;;;;;;20.10;4.72;;;;;;;7.78;100.00;99397.06;5087616;28;20366;-71
2024/03/22 10:31:52;;;;;;;9.85;3.10;;;;;;;7.82;100.00;99403.06;5087556;28;20032;-71
2024/03/22 10:34:18;;;;;;;24.45;3.08;;;;;;;7.79;100.00;99395.34;5087317;28;20024;-73
2024/03/22 10:36:44;;;;;;;24.13;5.15;;;;;;;7.80;100.00;99394.47;5087318;28;20050;-73
2024/03/22 10:39:12;;;;;;;28.85;4.55;;;;;;;7.87;100.00;99388.34;5085747;28;20028;-73
2024/03/22 10:41:38;;;;;;;21.67;3.42;;;;;;;7.86;100.00;99388.38;5085728;28;20035;-75
2024/03/22 10:44:04;;;;;;;21.50;5.13;;;;;;;7.80;100.00;99385.00;5086729;28;20103;-76
2024/03/22 10:46:30;;;;;;;23.80;7.03;;;;;;;7.76;100.00;99396.25;5086912;28;20024;-75
2024/03/22 10:48:57;;;;;;;14.98;4.85;;;;;;;7.75;100.00;99391.09;5086815;28;20031;-75
2024/03/22 10:51:24;;;;;;;11.93;2.30;;;;;;;7.90;100.00;99374.53;5086882;28;20032;-75
2024/03/22 10:53:54;;;;;;;18.40;6.00;;;;;;;7.92;100.00;99365.88;5086770;28;20178;-73
2024/03/22 10:56:22;;;;;;;7.15;3.53;;;;;;;8.08;100.00;99377.72;5086862;28;20024;-74
2024/03/22 10:58:52;;;;;;;11.32;4.57;;;;;;;8.33;100.00;99377.34;5085302;28;20123;-73
2024/03/22 11:01:26;;;;;;;23.05;3.30;;;;;;;8.40;100.00;99369.47;5085352;28;20033;-73
2024/03/22 11:04:03;;;;;;;16.38;3.42;;;;;;;8.52;100.00;99371.00;5085070;28;20021;-74
2024/03/22 11:06:28;;;;;;;5.28;2.72;;;;;;;8.66;100.00;99369.94;5086682;28;20023;-73
2024/03/22 11:08:54;;;;;;;18.30;4.68;;;;;;;8.64;100.00;99358.78;5086517;28;20017;-72
2024/03/22 11:11:19;;;;;;;25.42;3.60;;;;;;;8.68;100.00;99374.22;5086481;28;20039;-73
2024/03/22 11:13:48;;;;;;;20.33;4.20;;;;;;;8.65;100.00;99348.41;5086360;28;20027;-72
2024/03/22 11:16:14;;;;;;;9.60;4.35;;;;;;;8.58;100.00;99341.59;5086309;28;20027;-74
2024/03/22 11:18:39;;;;;;;16.63;4.47;;;;;;;8.49;100.00;99346.91;5086011;28;20051;-72
2024/03/22 11:21:07;;;;;;;12.57;4.32;;;;;;;8.47;100.00;99343.50;5086244;28;20024;-73
2024/03/22 11:23:33;;;;;;;24.25;4.55;;;;;;;8.48;100.00;99348.63;5086168;28;20020;-72